Time;durP1;ratioP1;P1;durP2;ratioP2;P2;SDS_P1;SDS_P2;PMS_P1;PMS_P2;Temp;Humidity;BMP_temperature;BMP_pressure;BME280_temperature;BME280_humidity;BME280_pressure;Samples;Min_cycle;Max_cycle;Signal;HPM_P1;HPM_P2
2022/03/10 00:00:17;;;;;;;22.40;12.07;;;1.80;44.30;;;;;;5032485;28;20366;-21
2022/03/10 00:02:43;;;;;;;19.67;11.73;;;1.80;44.70;;;;;;5032959;28;20033;-22
2022/03/10 00:05:11;;;;;;;15.25;8.85;;;1.80;44.40;;;;;;5032373;28;20061;-21
2022/03/10 00:07:37;;;;;;;13.98;8.63;;;1.70;44.10;;;;;;5032969;28;20029;-21
2022/03/10 00:10:04;;;;;;;16.30;7.90;;;1.70;43.90;;;;;;5032890;28;20121;-21
2022/03/10 00:12:29;;;;;;;15.15;7.78;;;1.60;44.10;;;;;;5032678;28;20018;-22
2022/03/10 00:14:55;;;;;;;17.20;8.65;;;1.60;43.90;;;;;;5032480;28;20507;-21
2022/03/10 00:17:21;;;;;;;17.00;8.10;;;1.60;43.90;;;;;;5032539;28;20025;-21
2022/03/10 00:19:47;;;;;;;15.13;8.05;;;1.50;44.40;;;;;;5032396;28;20049;-23
2022/03/10 00:22:13;;;;;;;29.92;17.20;;;1.50;44.30;;;;;;5032510;28;20091;-22
2022/03/10 00:24:39;;;;;;;19.95;9.63;;;1.40;44.60;;;;;;5032385;28;20033;-21
2022/03/10 00:27:06;;;;;;;18.30;8.88;;;1.40;44.80;;;;;;5035152;28;20194;-21
2022/03/10 00:29:32;;;;;;;20.67;9.38;;;1.40;44.30;;;;;;5036051;28;20071;-21
2022/03/10 00:31:59;;;;;;;16.55;8.13;;;1.30;44.20;;;;;;5036138;28;20100;-21
2022/03/10 00:34:25;;;;;;;23.90;12.20;;;1.30;44.20;;;;;;5036014;28;20033;-20
2022/03/10 00:36:50;;;;;;;20.77;11.25;;;1.20;45.30;;;;;;5035773;28;20056;-20
2022/03/10 00:39:16;;;;;;;21.50;11.10;;;1.20;45.20;;;;;;5036070;28;20030;-20
2022/03/10 00:41:42;;;;;;;27.63;15.27;;;1.20;45.00;;;;;;5036075;28;20096;-20
2022/03/10 00:44:08;;;;;;;29.98;14.90;;;1.10;45.30;;;;;;5035899;28;20029;-21
2022/03/10 00:46:34;;;;;;;18.63;9.70;;;1.10;45.70;;;;;;5035778;28;20057;-21
2022/03/10 00:48:59;;;;;;;16.90;8.32;;;1.00;46.40;;;;;;5035649;28;20445;-20
2022/03/10 00:51:25;;;;;;;20.90;11.18;;;1.00;45.30;;;;;;5035435;28;20027;-20
2022/03/10 00:53:51;;;;;;;19.50;8.95;;;1.00;45.40;;;;;;5035567;28;20104;-20
2022/03/10 00:56:17;;;;;;;16.08;8.95;;;0.90;45.30;;;;;;5035564;28;20079;-19
2022/03/10 00:58:43;;;;;;;24.08;13.13;;;0.90;45.00;;;;;;5035775;28;20047;-22
2022/03/10 01:01:10;;;;;;;20.45;9.55;;;0.90;48.20;;;;;;5035241;28;20085;-21
2022/03/10 01:03:37;;;;;;;19.25;9.60;;;0.80;46.00;;;;;;5035435;28;20037;-19
2022/03/10 01:06:03;;;;;;;41.53;20.55;;;0.80;45.60;;;;;;5035137;28;20037;-21
2022/03/10 01:08:29;;;;;;;48.92;23.88;;;0.80;48.10;;;;;;5035148;28;20082;-21
2022/03/10 01:10:55;;;;;;;48.58;25.20;;;0.80;48.90;;;;;;5035484;28;20033;-21
2022/03/10 01:13:20;;;;;;;23.63;11.18;;;0.70;52.70;;;;;;5035473;28;20032;-20
2022/03/10 01:15:47;;;;;;;21.58;10.93;;;0.70;48.20;;;;;;5035282;28;20473;-21
2022/03/10 01:18:14;;;;;;;21.45;10.63;;;0.70;47.20;;;;;;5034946;28;20081;-20
2022/03/10 01:20:40;;;;;;;20.10;9.90;;;0.60;48.40;;;;;;5035257;28;20036;-21
2022/03/10 01:23:08;;;;;;;18.95;9.43;;;0.60;46.60;;;;;;5035293;28;20116;-20
2022/03/10 01:25:34;;;;;;;21.60;9.48;;;0.60;46.60;;;;;;5035727;28;20053;-21
2022/03/10 01:27:59;;;;;;;26.65;14.20;;;0.60;46.00;;;;;;5035276;28;20385;-21
2022/03/10 01:30:25;;;;;;;24.35;12.18;;;0.50;46.60;;;;;;5034970;28;20065;-21
2022/03/10 01:32:51;;;;;;;19.40;9.65;;;0.50;48.40;;;;;;5034791;28;20388;-21
2022/03/10 01:35:17;;;;;;;18.20;9.57;;;0.50;46.90;;;;;;5035539;28;20036;-20
2022/03/10 01:37:44;;;;;;;24.23;12.77;;;0.50;47.00;;;;;;5034861;28;20028;-21
2022/03/10 01:40:14;;;;;;;16.83;8.55;;;0.40;47.60;;;;;;5034659;28;20489;-20
2022/03/10 01:42:40;;;;;;;20.35;9.20;;;0.40;47.10;;;;;;5034965;28;20124;-20
2022/03/10 01:45:07;;;;;;;14.63;7.40;;;0.40;47.20;;;;;;5034577;28;20071;-21
2022/03/10 01:47:33;;;;;;;15.93;7.85;;;0.30;46.80;;;;;;5034531;28;20060;-21
2022/03/10 01:49:59;;;;;;;17.92;8.60;;;0.30;46.50;;;;;;5034596;28;20053;-21
2022/03/10 01:52:25;;;;;;;63.53;32.08;;;0.30;46.70;;;;;;5034216;28;20022;-20
2022/03/10 01:54:51;;;;;;;21.52;10.55;;;0.20;48.30;;;;;;5034519;28;20116;-20
2022/03/10 01:57:17;;;;;;;25.33;14.80;;;0.20;48.70;;;;;;5034679;28;20033;-20
2022/03/10 01:59:44;;;;;;;17.25;8.57;;;0.20;48.30;;;;;;5034308;28;20045;-21
2022/03/10 02:02:10;;;;;;;19.83;8.98;;;0.10;47.60;;;;;;5034769;28;20029;-21
2022/03/10 02:04:36;;;;;;;39.33;19.75;;;0.10;47.40;;;;;;5034474;28;20025;-19
2022/03/10 02:07:04;;;;;;;26.98;14.05;;;0.10;50.00;;;;;;5034066;28;20405;-21
2022/03/10 02:12:15;;;;;;;18.85;9.00;;;0.10;48.80;;;;;;5034259;28;20091;-21
2022/03/10 02:17:26;;;;;;;16.52;7.80;;;0.00;47.70;;;;;;5034311;28;20087;-23
2022/03/10 02:19:56;;;;;;;22.10;11.20;;;0.00;47.50;;;;;;5033525;28;20044;-21
2022/03/10 02:22:23;;;;;;;28.30;15.27;;;0.00;47.50;;;;;;5032385;28;20031;-21
2022/03/10 02:24:51;;;;;;;21.08;10.93;;;0.00;48.40;;;;;;5034208;28;20033;-21
2022/03/10 02:27:22;;;;;;;16.70;8.50;;;0.00;48.40;;;;;;5034042;28;20099;-22
2022/03/10 02:29:50;;;;;;;16.77;7.32;;;0.00;47.80;;;;;;5032634;28;20034;-21
2022/03/10 02:32:17;;;;;;;17.65;8.65;;;0.00;47.50;;;;;;5033441;28;20033;-21
2022/03/10 02:34:43;;;;;;;59.88;28.27;;;0.00;49.00;;;;;;5033710;28;20017;-21
2022/03/10 02:37:10;;;;;;;45.58;21.58;;;0.00;53.10;;;;;;5033915;28;20072;-22
2022/03/10 02:39:37;;;;;;;26.02;13.18;;;-0.10;53.50;;;;;;5034152;28;20397;-20
2022/03/10 02:42:03;;;;;;;21.05;10.02;;;-0.10;50.70;;;;;;5033531;28;20049;-20
2022/03/10 02:44:32;;;;;;;25.38;11.23;;;-0.10;49.50;;;;;;5032006;28;20083;-19
2022/03/10 02:46:59;;;;;;;18.70;9.10;;;-0.10;50.10;;;;;;5033777;28;20059;-22
2022/03/10 02:49:25;;;;;;;17.35;8.07;;;-0.10;49.50;;;;;;5033183;28;20018;-20
2022/03/10 02:51:51;;;;;;;23.90;12.23;;;-0.10;48.90;;;;;;5033713;28;20030;-21
2022/03/10 02:54:18;;;;;;;18.67;9.32;;;-0.10;49.00;;;;;;5033440;28;20018;-21
2022/03/10 02:56:44;;;;;;;37.67;18.58;;;-0.20;50.20;;;;;;5033900;28;20029;-21
2022/03/10 02:59:10;;;;;;;22.92;11.80;;;-0.20;52.90;;;;;;5033869;28;20374;-21
2022/03/10 03:01:37;;;;;;;23.70;12.00;;;-0.20;50.30;;;;;;5033579;28;20115;-21
2022/03/10 03:04:03;;;;;;;23.50;11.32;;;-0.20;51.70;;;;;;5033967;28;20029;-21
2022/03/10 03:06:29;;;;;;;28.67;15.18;;;-0.20;51.40;;;;;;5032851;28;20034;-21
2022/03/10 03:08:55;;;;;;;33.67;16.48;;;-0.20;49.90;;;;;;5033424;28;20021;-21
2022/03/10 03:11:21;;;;;;;30.88;16.25;;;-0.20;51.40;;;;;;5033718;28;20090;-20
2022/03/10 03:13:46;;;;;;;17.40;8.85;;;-0.30;51.20;;;;;;5033049;28;20379;-22
2022/03/10 03:16:13;;;;;;;15.63;6.80;;;-0.30;50.20;;;;;;5033003;28;20032;-21
2022/03/10 03:18:39;;;;;;;15.32;6.90;;;-0.30;49.60;;;;;;5033044;28;20053;-20
2022/03/10 03:21:04;;;;;;;16.50;7.82;;;-0.30;49.20;;;;;;5033545;28;20516;-21
2022/03/10 03:23:30;;;;;;;18.13;8.80;;;-0.30;49.00;;;;;;5033325;28;20025;-21
2022/03/10 03:25:56;;;;;;;35.72;17.00;;;-0.30;49.10;;;;;;5033233;28;20469;-20
2022/03/10 03:28:22;;;;;;;23.02;11.57;;;-0.30;55.20;;;;;;5032870;28;20482;-20
2022/03/10 03:30:51;;;;;;;18.70;9.77;;;-0.30;52.40;;;;;;5032982;28;20028;-21
2022/03/10 03:33:17;;;;;;;16.55;7.97;;;-0.40;51.70;;;;;;5032884;28;20026;-20
2022/03/10 03:35:43;;;;;;;31.95;17.70;;;-0.40;50.60;;;;;;5033127;28;20022;-20
2022/03/10 03:38:09;;;;;;;17.77;7.80;;;-0.40;50.80;;;;;;5033502;28;20040;-19
2022/03/10 03:40:35;;;;;;;31.50;15.23;;;-0.40;49.90;;;;;;5032645;28;20120;-20
2022/03/10 03:43:01;;;;;;;26.70;13.55;;;-0.40;53.80;;;;;;5033110;28;20056;-19
2022/03/10 03:45:27;;;;;;;17.35;9.05;;;-0.50;53.00;;;;;;5032768;28;20045;-19
2022/03/10 03:47:54;;;;;;;16.10;7.65;;;-0.50;51.80;;;;;;5032906;28;20026;-20
2022/03/10 03:50:20;;;;;;;17.77;8.45;;;-0.50;50.70;;;;;;5032819;28;20125;-21
2022/03/10 03:52:46;;;;;;;18.73;9.25;;;-0.60;50.80;;;;;;5033049;28;20029;-22
2022/03/10 03:55:13;;;;;;;16.52;8.90;;;-0.60;50.00;;;;;;5032937;28;20470;-21
2022/03/10 03:57:39;;;;;;;15.68;7.93;;;-0.60;50.00;;;;;;5033011;28;20075;-20
2022/03/10 04:00:08;;;;;;;14.32;7.18;;;-0.60;50.20;;;;;;5032854;28;20033;-21
2022/03/10 04:02:34;;;;;;;15.85;6.97;;;-0.60;49.60;;;;;;5035226;28;20029;-22
2022/03/10 04:05:00;;;;;;;13.02;6.65;;;-0.70;49.60;;;;;;5036607;28;20028;-20
2022/03/10 04:07:26;;;;;;;19.38;9.38;;;-0.70;49.60;;;;;;5036286;28;20037;-20
2022/03/10 04:09:51;;;;;;;19.65;10.38;;;-0.70;51.10;;;;;;5036733;28;20509;-22
2022/03/10 04:12:17;;;;;;;47.05;23.10;;;-0.70;51.90;;;;;;5036139;28;20498;-20
2022/03/10 04:14:43;;;;;;;22.58;10.95;;;-0.80;52.20;;;;;;5036841;28;20029;-19
2022/03/10 04:17:09;;;;;;;17.88;8.88;;;-0.80;52.10;;;;;;5035001;28;20025;-22
2022/03/10 04:19:34;;;;;;;30.48;14.95;;;-0.80;51.00;;;;;;5035997;28;20108;-21
2022/03/10 04:22:00;;;;;;;15.35;7.63;;;-0.80;50.70;;;;;;5036082;28;20028;-20
2022/03/10 04:24:26;;;;;;;15.07;6.78;;;-0.80;50.30;;;;;;5035905;28;20067;-22
2022/03/10 04:26:52;;;;;;;26.70;12.05;;;-0.90;50.30;;;;;;5036064;28;20069;-20
2022/03/10 04:29:18;;;;;;;17.10;8.68;;;-0.90;51.70;;;;;;5036913;28;20030;-20
2022/03/10 04:31:44;;;;;;;16.13;7.05;;;-0.90;51.60;;;;;;5035969;28;20032;-21
2022/03/10 04:34:10;;;;;;;11.70;6.20;;;-0.90;51.40;;;;;;5036255;28;20112;-21
2022/03/10 04:36:36;;;;;;;26.08;12.95;;;-0.90;51.10;;;;;;5035913;28;20037;-20
2022/03/10 04:39:04;;;;;;;58.83;29.23;;;-1.00;53.40;;;;;;5036052;28;20103;-19
2022/03/10 04:41:29;;;;;;;31.70;14.82;;;-1.00;53.10;;;;;;5035851;28;20079;-21
2022/03/10 04:43:55;;;;;;;33.08;15.52;;;-1.00;54.30;;;;;;5035976;28;20030;-20
2022/03/10 04:46:22;;;;;;;20.58;8.93;;;-1.00;57.60;;;;;;5035578;28;20108;-20
2022/03/10 04:48:49;;;;;;;20.23;10.02;;;-1.00;54.00;;;;;;5035668;28;20037;-22
2022/03/10 04:51:15;;;;;;;44.58;22.08;;;-1.00;52.90;;;;;;5036381;28;20017;-20
2022/03/10 04:53:41;;;;;;;33.35;15.35;;;-1.00;54.90;;;;;;5035585;28;20505;-20
2022/03/10 04:56:07;;;;;;;22.08;10.32;;;-1.00;54.10;;;;;;5035563;28;20022;-20
2022/03/10 04:58:33;;;;;;;20.67;8.43;;;-1.00;53.10;;;;;;5035882;28;20026;-20
2022/03/10 05:00:59;;;;;;;15.55;7.25;;;-1.00;52.40;;;;;;5035865;28;20028;-21
2022/03/10 05:03:25;;;;;;;14.50;7.15;;;-1.00;51.80;;;;;;5035344;28;20248;-21
2022/03/10 05:05:51;;;;;;;27.42;12.60;;;-1.00;51.50;;;;;;5033918;28;20033;-20
2022/03/10 05:08:17;;;;;;;21.55;10.25;;;-1.00;54.60;;;;;;5035212;28;20595;-20
2022/03/10 05:10:42;;;;;;;26.48;12.85;;;-1.00;52.60;;;;;;5035293;28;20025;-21
2022/03/10 05:13:08;;;;;;;20.40;9.82;;;-1.10;56.30;;;;;;5034798;28;20037;-21
2022/03/10 05:15:34;;;;;;;16.35;7.75;;;-1.00;54.40;;;;;;5034583;28;20032;-20
2022/03/10 05:18:02;;;;;;;15.32;7.82;;;-1.10;52.70;;;;;;5035033;28;20025;-22
2022/03/10 05:20:29;;;;;;;26.88;13.30;;;-1.10;52.30;;;;;;5034860;28;20394;-23
2022/03/10 05:22:58;;;;;;;18.70;8.38;;;-1.10;54.90;;;;;;5035648;28;20033;-21
2022/03/10 05:25:31;;;;;;;17.95;9.32;;;-1.10;53.30;;;;;;5035251;28;20022;-20
2022/03/10 05:27:56;;;;;;;87.45;40.88;;;-1.10;53.50;;;;;;5035273;28;20052;-22
2022/03/10 05:30:23;;;;;;;23.58;11.30;;;-1.10;56.40;;;;;;5035002;28;20482;-21
2022/03/10 05:32:49;;;;;;;29.45;16.13;;;-1.20;53.70;;;;;;5034800;28;20025;-21
2022/03/10 05:35:17;;;;;;;29.85;15.73;;;-1.10;54.30;;;;;;5035141;28;20064;-21
2022/03/10 05:37:46;;;;;;;20.77;9.77;;;-1.10;54.20;;;;;;5034632;28;20033;-21
2022/03/10 05:40:15;;;;;;;16.17;7.70;;;-1.20;53.90;;;;;;5034816;28;20116;-20
2022/03/10 05:42:43;;;;;;;16.67;6.95;;;-1.10;52.70;;;;;;5034646;28;20397;-21
2022/03/10 05:45:10;;;;;;;14.05;6.88;;;-1.20;52.30;;;;;;5034913;28;20108;-21
2022/03/10 05:47:38;;;;;;;28.00;13.18;;;-1.20;52.70;;;;;;5034588;28;20049;-20
2022/03/10 05:50:09;;;;;;;73.93;34.05;;;-1.20;54.30;;;;;;5034774;28;20033;-20
2022/03/10 05:52:36;;;;;;;68.60;33.33;;;-1.20;55.90;;;;;;5034499;28;20053;-21
2022/03/10 05:55:04;;;;;;;23.50;12.27;;;-1.20;59.90;;;;;;5034628;28;20426;-21
2022/03/10 05:57:31;;;;;;;20.65;9.38;;;-1.20;56.10;;;;;;5035054;28;20091;-20
2022/03/10 05:59:56;;;;;;;20.65;9.07;;;-1.10;54.30;;;;;;5034361;28;20485;-20
2022/03/10 06:02:23;;;;;;;30.95;14.20;;;-1.10;54.20;;;;;;5034168;28;20091;-22
2022/03/10 06:04:49;;;;;;;30.13;14.93;;;-1.00;53.90;;;;;;5034055;28;20021;-22
2022/03/10 06:07:16;;;;;;;27.20;12.18;;;-1.00;54.80;;;;;;5034101;28;20040;-19
2022/03/10 06:09:43;;;;;;;45.53;22.48;;;-1.00;55.60;;;;;;5034454;28;20055;-21
2022/03/10 06:12:09;;;;;;;32.53;15.38;;;-0.90;56.60;;;;;;5034198;28;20442;-21
2022/03/10 06:14:36;;;;;;;20.77;10.02;;;-0.90;56.30;;;;;;5034187;28;20500;-20
2022/03/10 06:17:02;;;;;;;19.08;8.82;;;-0.80;55.50;;;;;;5034070;28;20025;-21
2022/03/10 06:19:28;;;;;;;14.20;7.57;;;-0.80;54.70;;;;;;5033895;28;20096;-21
2022/03/10 06:21:54;;;;;;;18.40;8.63;;;-0.70;53.50;;;;;;5033970;28;20017;-19
2022/03/10 06:24:21;;;;;;;14.43;7.47;;;-0.60;53.70;;;;;;5033097;28;20046;-18
2022/03/10 06:26:47;;;;;;;13.10;6.70;;;-0.50;54.30;;;;;;5034438;28;20394;-20
2022/03/10 06:29:16;;;;;;;14.20;6.68;;;-0.40;53.20;;;;;;5033959;28;20033;-20
2022/03/10 06:31:42;;;;;;;16.10;8.02;;;-0.30;53.00;;;;;;5034008;28;20056;-18
2022/03/10 06:34:07;;;;;;;14.50;7.13;;;-0.20;52.80;;;;;;5033704;28;20064;-19
2022/03/10 06:36:33;;;;;;;15.55;7.45;;;-0.10;53.10;;;;;;5033495;28;20052;-18
2022/03/10 06:38:59;;;;;;;17.55;8.23;;;0.00;52.20;;;;;;5033669;28;20021;-17
2022/03/10 06:41:25;;;;;;;40.13;17.83;;;0.10;51.60;;;;;;5033578;28;20040;-20
2022/03/10 06:43:51;;;;;;;30.67;14.57;;;0.30;51.40;;;;;;5033838;28;20061;-17
2022/03/10 06:46:20;;;;;;;28.40;12.27;;;0.50;52.90;;;;;;5033301;28;20053;-19
2022/03/10 06:48:46;;;;;;;25.17;11.85;;;0.70;51.70;;;;;;5033766;28;20061;-19
2022/03/10 06:51:12;;;;;;;61.72;30.10;;;0.90;51.80;;;;;;5033341;28;20057;-19
2022/03/10 06:53:38;;;;;;;31.15;14.88;;;1.20;52.20;;;;;;5034198;28;20029;-19
2022/03/10 06:56:04;;;;;;;35.38;18.33;;;1.40;52.20;;;;;;5033944;28;20024;-20
2022/03/10 06:58:30;;;;;;;27.52;13.82;;;1.70;52.10;;;;;;5033169;28;20025;-19
2022/03/10 07:00:56;;;;;;;43.25;19.38;;;1.90;52.10;;;;;;5033599;28;20117;-19
2022/03/10 07:03:22;;;;;;;23.15;11.05;;;2.20;51.10;;;;;;5033702;28;20030;-19
2022/03/10 07:05:47;;;;;;;24.05;10.75;;;2.40;50.20;;;;;;5033152;28;20025;-21
2022/03/10 07:08:13;;;;;;;27.60;12.95;;;2.60;50.00;;;;;;5033260;28;20055;-21
2022/03/10 07:10:39;;;;;;;49.30;24.08;;;2.80;49.60;;;;;;5033137;28;20025;-20
2022/03/10 07:13:06;;;;;;;47.28;19.80;;;2.90;51.00;;;;;;5033184;28;20026;-22
2022/03/10 07:15:32;;;;;;;30.65;13.20;;;3.10;50.30;;;;;;5033432;28;20151;-20
2022/03/10 07:17:58;;;;;;;21.58;10.65;;;3.30;49.30;;;;;;5032821;28;20116;-20
2022/03/10 07:20:24;;;;;;;64.28;27.55;;;3.40;49.10;;;;;;5033317;28;20030;-21
2022/03/10 07:22:50;;;;;;;33.70;15.55;;;3.60;49.70;;;;;;5033718;28;20047;-21
2022/03/10 07:25:16;;;;;;;27.30;12.88;;;3.70;50.50;;;;;;5031776;28;20042;-21
2022/03/10 07:27:43;;;;;;;25.30;11.90;;;3.90;50.00;;;;;;5033322;28;20025;-21
2022/03/10 07:30:09;;;;;;;26.27;13.00;;;3.90;49.50;;;;;;5033260;28;20037;-21
2022/03/10 07:32:34;;;;;;;46.05;20.27;;;4.10;49.60;;;;;;5032823;28;20029;-20
2022/03/10 07:35:01;;;;;;;50.72;21.77;;;4.20;50.10;;;;;;5032900;28;20036;-23
2022/03/10 07:37:27;;;;;;;36.08;16.85;;;4.40;49.50;;;;;;5037230;28;20033;-21
2022/03/10 07:39:53;;;;;;;27.25;13.07;;;4.50;49.50;;;;;;5036929;28;20029;-21
2022/03/10 07:42:19;;;;;;;30.90;13.63;;;4.70;49.70;;;;;;5035482;28;20025;-23
2022/03/10 07:44:45;;;;;;;37.08;15.90;;;4.80;49.60;;;;;;5037419;28;20030;-21
2022/03/10 07:47:11;;;;;;;39.70;18.10;;;4.90;50.00;;;;;;5037101;28;20025;-21
2022/03/10 07:49:37;;;;;;;40.25;19.42;;;5.10;49.50;;;;;;5037114;28;20030;-21
2022/03/10 07:52:04;;;;;;;41.05;21.13;;;5.20;50.60;;;;;;5036967;28;20022;-21
2022/03/10 07:54:30;;;;;;;58.58;25.73;;;5.50;53.40;;;;;;5036791;28;20033;-21
2022/03/10 07:56:56;;;;;;;40.00;19.45;;;5.60;51.90;;;;;;5036709;28;20409;-22
2022/03/10 07:59:23;;;;;;;43.00;20.05;;;5.90;53.40;;;;;;5036808;28;20037;-21
2022/03/10 08:01:49;;;;;;;49.15;22.00;;;6.00;52.00;;;;;;5036572;28;20025;-21
2022/03/10 08:04:15;;;;;;;44.45;23.65;;;6.20;52.20;;;;;;5036511;28;20029;-23
2022/03/10 08:06:41;;;;;;;38.85;20.33;;;6.40;52.60;;;;;;5035206;28;20052;-21
2022/03/10 08:09:10;;;;;;;40.25;19.65;;;6.60;51.50;;;;;;5036703;28;20129;-21
2022/03/10 08:11:38;;;;;;;29.75;13.93;;;6.80;50.90;;;;;;5036743;28;20025;-21
2022/03/10 08:14:04;;;;;;;42.60;20.73;;;6.90;50.20;;;;;;5036421;28;20043;-22
2022/03/10 08:16:32;;;;;;;61.33;28.88;;;7.10;50.20;;;;;;5036172;28;20543;-23
2022/03/10 08:18:59;;;;;;;38.67;18.73;;;7.40;52.00;;;;;;5035981;28;20057;-23
2022/03/10 08:21:26;;;;;;;37.83;18.05;;;7.60;50.00;;;;;;5036111;28;20033;-21
2022/03/10 08:23:52;;;;;;;46.67;23.05;;;7.90;49.60;;;;;;5036174;28;20037;-23
2022/03/10 08:26:18;;;;;;;36.55;19.02;;;8.00;49.90;;;;;;5035812;28;20034;-22
2022/03/10 08:28:45;;;;;;;42.40;20.60;;;8.30;48.90;;;;;;5036373;28;20078;-21
2022/03/10 08:31:11;;;;;;;35.08;15.98;;;8.50;48.30;;;;;;5036312;28;20036;-21
2022/03/10 08:33:37;;;;;;;32.63;16.25;;;8.70;47.80;;;;;;5036293;28;20037;-21
2022/03/10 08:36:07;;;;;;;42.60;21.08;;;8.90;47.00;;;;;;5036041;28;20362;-21
2022/03/10 08:38:35;;;;;;;39.83;18.25;;;9.20;46.80;;;;;;5035657;28;20021;-23
2022/03/10 08:41:01;;;;;;;27.27;14.00;;;9.40;46.70;;;;;;5035834;28;20482;-21
2022/03/10 08:43:29;;;;;;;49.40;23.65;;;9.70;46.10;;;;;;5036392;28;20096;-21
2022/03/10 08:45:56;;;;;;;50.03;24.75;;;9.90;45.70;;;;;;5035958;28;20060;-21
2022/03/10 08:48:22;;;;;;;34.63;16.80;;;10.20;45.40;;;;;;5035221;28;20025;-21
2022/03/10 08:50:48;;;;;;;43.35;22.17;;;10.50;44.80;;;;;;5036353;28;20487;-21
2022/03/10 08:53:14;;;;;;;39.90;20.25;;;10.70;44.60;;;;;;5035540;28;20112;-21
2022/03/10 08:55:40;;;;;;;31.63;16.35;;;10.90;44.20;;;;;;5034328;28;20021;-21
2022/03/10 08:58:06;;;;;;;44.72;23.27;;;11.20;43.70;;;;;;5035885;28;20029;-23
2022/03/10 09:00:33;;;;;;;35.13;17.40;;;11.50;43.60;;;;;;5035680;28;20064;-23
2022/03/10 09:03:00;;;;;;;41.08;21.67;;;11.70;43.20;;;;;;5035772;28;20113;-22
2022/03/10 09:05:26;;;;;;;39.17;20.17;;;12.00;42.80;;;;;;5035664;28;20072;-20
2022/03/10 09:07:52;;;;;;;40.10;20.92;;;12.20;42.50;;;;;;5035320;28;20536;-21
2022/03/10 09:10:18;;;;;;;39.92;19.02;;;12.50;42.00;;;;;;5034102;28;20025;-22
2022/03/10 09:12:44;;;;;;;41.72;21.50;;;12.70;41.90;;;;;;5035820;28;20033;-21
2022/03/10 09:15:10;;;;;;;31.33;16.63;;;13.00;41.20;;;;;;5035736;28;20017;-21
2022/03/10 09:17:37;;;;;;;35.47;18.27;;;13.20;41.20;;;;;;5035176;28;20040;-21
2022/03/10 09:20:07;;;;;;;31.50;16.90;;;13.50;40.80;;;;;;5034946;28;20517;-21
2022/03/10 09:22:34;;;;;;;29.20;15.68;;;13.80;40.60;;;;;;5033814;28;20116;-23
2022/03/10 09:25:02;;;;;;;32.80;16.85;;;14.00;40.00;;;;;;5035243;28;20481;-22
2022/03/10 09:27:29;;;;;;;41.92;21.75;;;14.30;39.50;;;;;;5034967;28;20503;-21
2022/03/10 09:29:55;;;;;;;34.72;17.25;;;14.60;39.30;;;;;;5035233;28;20041;-21
2022/03/10 09:32:21;;;;;;;42.63;21.80;;;14.90;39.00;;;;;;5034679;28;20033;-21
2022/03/10 09:34:47;;;;;;;38.85;19.83;;;15.10;38.90;;;;;;5035128;28;20104;-21
2022/03/10 09:37:12;;;;;;;37.38;20.08;;;15.40;38.70;;;;;;5034694;28;20028;-21
2022/03/10 09:39:38;;;;;;;32.45;16.55;;;15.70;38.40;;;;;;5034937;28;20025;-23
2022/03/10 09:42:09;;;;;;;39.60;21.17;;;16.00;38.10;;;;;;5034981;28;20049;-22
2022/03/10 09:44:37;;;;;;;43.80;21.17;;;16.30;37.60;;;;;;5034689;28;20135;-21
2022/03/10 09:47:04;;;;;;;32.20;16.67;;;16.50;37.00;;;;;;5034935;28;20038;-21
2022/03/10 09:49:33;;;;;;;43.35;21.98;;;16.80;36.90;;;;;;5035098;28;20039;-21
2022/03/10 09:52:00;;;;;;;36.63;20.25;;;17.00;36.50;;;;;;5034397;28;20563;-20
2022/03/10 09:54:26;;;;;;;38.65;21.95;;;17.30;36.20;;;;;;5034354;28;20026;-21
2022/03/10 09:56:55;;;;;;;31.38;16.10;;;17.50;35.80;;;;;;5034406;28;20071;-21
2022/03/10 09:59:22;;;;;;;40.95;22.30;;;17.80;36.00;;;;;;5034353;28;20033;-21
2022/03/10 10:01:48;;;;;;;43.85;23.42;;;18.00;35.80;;;;;;5034632;28;20087;-21
2022/03/10 10:04:14;;;;;;;40.10;21.83;;;18.30;35.00;;;;;;5033987;28;20033;-21
2022/03/10 10:07:03;;;;;;;42.72;24.25;;;18.40;34.40;;;;;;5034834;28;20029;-20
2022/03/10 10:09:39;;;;;;;30.73;16.40;;;18.50;32.20;;;;;;5034527;28;20048;-21
2022/03/10 10:12:06;;;;;;;33.05;17.75;;;18.70;34.40;;;;;;5034177;28;20025;-21
2022/03/10 10:14:40;;;;;;;34.88;18.92;;;18.80;34.30;;;;;;5033916;28;20385;-21
2022/03/10 10:17:07;;;;;;;39.20;20.40;;;18.90;33.90;;;;;;5034317;28;20044;-21
2022/03/10 10:19:34;;;;;;;41.05;21.08;;;19.10;34.00;;;;;;5034013;28;20094;-21
2022/03/10 10:22:23;;;;;;;41.22;23.98;;;19.30;33.90;;;;;;5034049;28;20561;-21
2022/03/10 10:25:00;;;;;;;42.60;23.08;;;19.40;33.30;;;;;;5033844;28;20482;-21
2022/03/10 10:27:32;;;;;;;40.28;23.30;;;19.60;33.40;;;;;;5034196;28;20029;-21
2022/03/10 10:30:01;;;;;;;33.15;19.20;;;19.80;32.80;;;;;;5033841;28;20486;-21
2022/03/10 10:32:43;;;;;;;44.40;24.85;;;19.90;33.30;;;;;;5034119;28;20072;-21
2022/03/10 10:35:20;;;;;;;35.40;20.45;;;20.00;32.70;;;;;;5034070;28;20045;-21
2022/03/10 10:37:49;;;;;;;37.60;21.40;;;20.30;32.90;;;;;;5033939;28;20026;-21
2022/03/10 10:40:21;;;;;;;42.40;25.20;;;20.50;33.00;;;;;;5032245;28;20545;-22
2022/03/10 10:42:48;;;;;;;40.15;21.33;;;20.70;32.10;;;;;;5033642;28;20053;-21
2022/03/10 10:45:47;;;;;;;34.83;20.60;;;20.90;32.10;;;;;;5033392;28;20497;-22
2022/03/10 10:48:13;;;;;;;44.05;25.55;;;21.20;29.50;;;;;;5012328;28;20041;-21
2022/03/10 10:50:47;;;;;;;50.58;26.70;;;21.40;31.50;;;;;;5011606;28;20140;-21
2022/03/10 10:53:36;;;;;;;45.28;26.67;;;21.50;31.10;;;;;;5011623;28;20029;-21
2022/03/10 10:56:04;;;;;;;52.50;29.63;;;21.60;30.50;;;;;;5011681;28;20036;-21
2022/03/10 10:58:31;;;;;;;39.42;23.23;;;21.80;30.40;;;;;;5011551;28;20041;-21
2022/03/10 11:00:57;;;;;;;35.75;21.45;;;21.80;30.80;;;;;;5011599;28;20529;-22
2022/03/10 11:03:24;;;;;;;35.30;20.95;;;22.00;30.70;;;;;;5011424;28;20060;-21
2022/03/10 11:05:52;;;;;;;32.30;18.88;;;22.10;30.20;;;;;;5011403;28;20034;-21
2022/03/10 11:08:20;;;;;;;45.63;25.40;;;22.40;30.30;;;;;;5011133;28;20057;-21
2022/03/10 11:10:47;;;;;;;38.92;23.73;;;22.50;30.20;;;;;;5011067;28;20069;-21
2022/03/10 11:13:13;;;;;;;38.45;22.58;;;22.60;29.70;;;;;;5011775;28;20518;-21
2022/03/10 11:15:41;;;;;;;38.35;23.33;;;22.90;30.10;;;;;;5011517;28;20028;-21
2022/03/10 11:18:10;;;;;;;37.38;23.30;;;23.00;29.60;;;;;;5011471;28;20449;-22
2022/03/10 11:20:45;;;;;;;26.35;16.23;;;23.20;29.30;;;;;;5011042;28;20429;-21
2022/03/10 11:23:29;;;;;;;29.48;17.23;;;23.30;29.60;;;;;;5017042;28;20042;-21
2022/03/10 11:25:57;;;;;;;31.88;19.10;;;23.60;29.40;;;;;;5033227;28;20065;-21
2022/03/10 11:28:32;;;;;;;34.47;20.60;;;23.80;29.50;;;;;;5033134;28;20075;-21
2022/03/10 11:31:02;;;;;;;35.35;22.13;;;24.00;28.80;;;;;;5033326;28;20091;-21
2022/03/10 11:33:33;;;;;;;44.53;25.58;;;24.30;29.10;;;;;;5032956;28;20064;-21
2022/03/10 11:36:00;;;;;;;37.95;23.60;;;24.50;27.00;;;;;;5032957;28;20068;-21
2022/03/10 11:38:51;;;;;;;34.38;21.15;;;24.70;28.10;;;;;;5032275;28;20029;-22
2022/03/10 11:41:17;;;;;;;35.25;21.30;;;24.80;27.00;;;;;;5033221;28;20087;-21
2022/03/10 11:43:58;;;;;;;36.50;22.63;;;25.00;28.00;;;;;;5033181;28;20033;-21
2022/03/10 11:46:27;;;;;;;30.98;19.00;;;25.10;26.70;;;;;;5032585;28;20033;-21
2022/03/10 11:49:15;;;;;;;40.00;24.90;;;25.30;27.60;;;;;;5033120;28;20108;-22
2022/03/10 11:51:51;;;;;;;38.72;24.45;;;25.50;26.10;;;;;;5033026;28;20088;-20
2022/03/10 11:54:25;;;;;;;45.95;27.17;;;25.60;26.90;;;;;;5033119;28;20030;-21
2022/03/10 11:56:51;;;;;;;37.35;23.80;;;25.50;24.80;;;;;;5033065;28;20034;-21
2022/03/10 11:59:32;;;;;;;39.75;25.40;;;25.50;25.80;;;;;;5032367;28;20455;-21
2022/03/10 12:02:00;;;;;;;41.00;26.40;;;25.40;25.60;;;;;;5033363;28;20030;-21
2022/03/10 12:04:56;;;;;;;36.55;23.73;;;25.50;26.30;;;;;;5032719;28;20017;-22
2022/03/10 12:07:27;;;;;;;38.33;24.13;;;25.60;24.80;;;;;;5010855;28;20045;-20
2022/03/10 12:10:11;;;;;;;41.00;26.20;;;25.70;26.30;;;;;;5011159;28;20061;-20
2022/03/10 12:12:42;;;;;;;35.30;22.88;;;25.90;23.70;;;;;;5010974;28;20521;-21
2022/03/10 12:15:24;;;;;;;39.38;24.38;;;26.00;26.00;;;;;;4994415;28;20022;-21
2022/03/10 12:17:55;;;;;;;39.00;24.83;;;26.20;24.50;;;;;;5010697;28;20034;-20
2022/03/10 12:20:26;;;;;;;39.88;24.27;;;26.40;25.10;;;;;;5010556;28;20037;-20
2022/03/10 12:23:06;;;;;;;35.60;23.08;;;26.50;25.40;;;;;;5012104;28;20174;-20
2022/03/10 12:25:42;;;;;;;37.90;23.63;;;26.60;25.00;;;;;;5014235;28;20042;-20
2022/03/10 12:28:33;;;;;;;48.35;30.27;;;26.70;24.70;;;;;;5014308;28;20529;-20
2022/03/10 12:31:07;;;;;;;38.63;24.80;;;26.90;25.00;;;;;;5014304;28;20037;-20
2022/03/10 12:33:34;;;;;;;49.58;28.83;;;27.00;24.50;;;;;;5014492;28;20025;-21
2022/03/10 12:36:01;;;;;;;40.22;24.98;;;27.20;24.70;;;;;;5014187;28;20045;-21
2022/03/10 12:38:38;;;;;;;44.90;27.58;;;27.30;24.50;;;;;;5013748;28;20034;-21
2022/03/10 12:41:05;;;;;;;37.03;25.08;;;27.50;24.10;;;;;;5014161;28;20110;-21